Time;durP1;ratioP1;P1;durP2;ratioP2;P2;SDS_P1;SDS_P2;PMS_P1;PMS_P2;Temp;Humidity;BMP_temperature;BMP_pressure;BME280_temperature;BME280_humidity;BME280_pressure;Samples;Min_cycle;Max_cycle;Signal;HPM_P1;HPM_P2
2022/02/12 00:00:27;;;;;;;20.70;9.07;;;-0.40;99.90;;;;;;4903163;28;20565;-62
2022/02/12 00:02:54;;;;;;;25.38;9.73;;;-0.50;99.90;;;;;;4918528;29;20147;-66
2022/02/12 00:05:24;;;;;;;20.30;9.73;;;-0.50;99.90;;;;;;4928084;28;20043;-62
2022/02/12 00:07:51;;;;;;;18.95;9.98;;;-0.50;99.90;;;;;;4923809;29;20079;-62
2022/02/12 00:10:17;;;;;;;17.92;8.55;;;-0.50;99.90;;;;;;4898096;28;20059;-66
2022/02/12 00:12:44;;;;;;;23.35;10.02;;;-0.50;99.90;;;;;;4915058;28;20289;-66
2022/02/12 00:15:10;;;;;;;18.80;9.82;;;-0.50;99.90;;;;;;4908155;28;20056;-66
2022/02/12 00:17:36;;;;;;;20.48;9.23;;;-0.50;99.90;;;;;;4942784;28;20047;-66
2022/02/12 00:20:05;;;;;;;15.93;9.38;;;-0.50;99.90;;;;;;4929589;28;20102;-66
2022/02/12 00:22:32;;;;;;;20.42;10.20;;;-0.50;99.90;;;;;;4955214;28;20057;-65
2022/02/12 00:24:58;;;;;;;15.13;8.85;;;-0.60;99.90;;;;;;4936594;28;20048;-66
2022/02/12 00:27:24;;;;;;;19.30;8.77;;;-0.60;99.90;;;;;;4914641;29;20052;-66
2022/02/12 00:29:51;;;;;;;20.15;10.00;;;-0.60;99.90;;;;;;4926745;28;20091;-66
2022/02/12 00:32:17;;;;;;;22.77;11.07;;;-0.60;99.90;;;;;;4942485;28;20838;-66
2022/02/12 00:34:43;;;;;;;20.75;10.70;;;-0.60;99.90;;;;;;4935728;28;20057;-66
2022/02/12 00:37:09;;;;;;;22.48;10.82;;;-0.60;99.90;;;;;;4948292;28;20415;-65
2022/02/12 00:39:35;;;;;;;20.75;10.15;;;-0.70;99.90;;;;;;4913421;28;20149;-66
2022/02/12 00:42:02;;;;;;;20.00;10.57;;;-0.70;99.90;;;;;;4939050;28;20048;-66
2022/02/12 00:44:28;;;;;;;21.30;11.50;;;-0.70;99.90;;;;;;4927137;29;20048;-66
2022/02/12 00:46:55;;;;;;;19.45;11.10;;;-0.70;99.90;;;;;;4904021;29;20052;-65
2022/02/12 00:49:22;;;;;;;30.40;12.10;;;-0.80;99.90;;;;;;4925702;28;20255;-66
2022/02/12 00:51:48;;;;;;;23.73;12.00;;;-0.80;99.90;;;;;;4948564;28;20056;-67
2022/02/12 00:54:14;;;;;;;24.15;11.77;;;-0.80;99.90;;;;;;4934071;29;20043;-65
2022/02/12 00:56:40;;;;;;;19.42;11.13;;;-0.80;99.90;;;;;;4922973;28;20052;-65
2022/02/12 00:59:07;;;;;;;21.95;10.32;;;-0.90;99.90;;;;;;4926379;28;20044;-66
2022/02/12 01:01:34;;;;;;;21.23;10.07;;;-0.90;99.90;;;;;;4901994;29;20047;-65
2022/02/12 01:04:02;;;;;;;20.27;10.73;;;-1.00;99.90;;;;;;4910962;29;20040;-65
2022/02/12 01:06:29;;;;;;;23.33;10.93;;;-0.90;99.90;;;;;;4927859;29;20048;-67
2022/02/12 01:08:59;;;;;;;24.05;11.60;;;-1.00;99.90;;;;;;4890653;29;20051;-66
2022/02/12 01:11:26;;;;;;;19.77;11.40;;;-0.90;99.90;;;;;;4953570;28;20083;-63
2022/02/12 01:13:53;;;;;;;24.02;10.43;;;-1.00;99.90;;;;;;4918354;29;20093;-63
2022/02/12 01:16:19;;;;;;;19.55;11.13;;;-0.90;99.90;;;;;;4916516;29;20136;-63
2022/02/12 01:18:45;;;;;;;21.00;10.43;;;-1.00;99.90;;;;;;4935617;28;20063;-63
2022/02/12 01:21:12;;;;;;;21.48;10.77;;;-1.00;99.90;;;;;;4924106;29;20047;-63
2022/02/12 01:23:38;;;;;;;21.58;10.68;;;-0.90;99.90;;;;;;4930316;29;20055;-62
2022/02/12 01:26:06;;;;;;;19.42;10.27;;;-1.00;99.90;;;;;;4941197;28;20785;-63
2022/02/12 01:28:32;;;;;;;23.02;10.65;;;-1.00;99.90;;;;;;4911578;29;20059;-63
2022/02/12 01:30:59;;;;;;;21.30;10.02;;;-1.00;99.90;;;;;;4916361;28;20659;-63
2022/02/12 01:33:25;;;;;;;22.85;10.70;;;-1.00;99.90;;;;;;4929392;29;20542;-62
2022/02/12 01:35:51;;;;;;;24.20;11.30;;;-1.00;99.90;;;;;;4930494;29;20143;-63
2022/02/12 01:38:17;;;;;;;22.65;10.80;;;-1.00;99.90;;;;;;4936913;28;20052;-63
2022/02/12 01:40:45;;;;;;;20.67;10.63;;;-1.00;99.90;;;;;;4890202;29;20335;-65
2022/02/12 01:43:13;;;;;;;19.92;9.80;;;-1.00;99.90;;;;;;4925341;29;20063;-63
2022/02/12 01:45:40;;;;;;;25.45;10.52;;;-1.10;99.90;;;;;;4945060;28;20052;-65
2022/02/12 01:48:06;;;;;;;22.13;10.77;;;-1.10;99.90;;;;;;4941338;28;20072;-66
2022/02/12 01:50:33;;;;;;;18.70;10.18;;;-1.00;99.90;;;;;;4946572;28;20407;-66
2022/02/12 01:53:01;;;;;;;18.35;10.30;;;-1.10;99.90;;;;;;4911568;29;20567;-66
2022/02/12 01:55:27;;;;;;;25.65;9.70;;;-1.10;99.90;;;;;;4906996;29;20136;-66
2022/02/12 01:57:53;;;;;;;19.67;10.15;;;-1.10;99.90;;;;;;4910749;29;20547;-63
2022/02/12 02:00:22;;;;;;;21.70;10.45;;;-1.20;99.90;;;;;;4942356;28;20044;-63
2022/02/12 02:02:49;;;;;;;22.83;9.45;;;-1.20;99.90;;;;;;4933373;28;20047;-63
2022/02/12 02:05:17;;;;;;;18.48;10.05;;;-1.20;99.90;;;;;;4924163;29;20109;-66
2022/02/12 02:07:44;;;;;;;19.02;9.75;;;-1.20;99.90;;;;;;4939371;28;20059;-66
2022/02/12 02:10:12;;;;;;;21.98;9.65;;;-1.20;99.90;;;;;;4948227;28;20083;-66
2022/02/12 02:12:39;;;;;;;23.08;9.48;;;-1.20;99.90;;;;;;4929545;28;20056;-66
2022/02/12 02:15:07;;;;;;;19.90;9.10;;;-1.20;99.90;;;;;;4919769;28;20052;-66
2022/02/12 02:17:33;;;;;;;24.60;10.52;;;-1.20;99.90;;;;;;4938395;28;20052;-62
2022/02/12 02:20:00;;;;;;;17.20;8.85;;;-1.30;99.90;;;;;;4938074;28;20056;-63
2022/02/12 02:22:33;;;;;;;22.58;9.77;;;-1.30;99.90;;;;;;4905009;29;20047;-62
2022/02/12 02:24:59;;;;;;;21.30;10.13;;;-1.30;99.90;;;;;;4950656;28;20047;-66
2022/02/12 02:27:28;;;;;;;20.70;9.45;;;-1.30;99.90;;;;;;4928382;28;20056;-66
2022/02/12 02:29:58;;;;;;;18.33;9.00;;;-1.20;99.90;;;;;;4921796;28;20482;-66
2022/02/12 02:32:24;;;;;;;21.27;9.25;;;-1.20;99.90;;;;;;4912935;29;20056;-62
2022/02/12 02:34:52;;;;;;;18.98;8.73;;;-1.20;99.90;;;;;;4914815;29;20161;-62
2022/02/12 02:37:20;;;;;;;16.77;8.57;;;-1.20;99.90;;;;;;4942952;28;20079;-63
2022/02/12 02:39:46;;;;;;;19.10;7.63;;;-1.20;99.90;;;;;;4934992;29;20055;-64
2022/02/12 02:42:13;;;;;;;23.08;7.82;;;-1.20;99.90;;;;;;4918495;29;20048;-62
2022/02/12 02:44:39;;;;;;;18.95;9.07;;;-1.20;99.90;;;;;;4927227;28;20067;-63
2022/02/12 02:49:51;;;;;;;16.20;6.93;;;-1.10;99.90;;;;;;4906260;28;20047;-62
2022/02/12 02:55:59;;;;;;;12.73;6.50;;;-1.10;99.90;;;;;;4942366;28;20091;-62
2022/02/12 02:57:50;;;;;;;17.58;7.50;;;-1.00;99.90;;;;;;4906913;29;20114;-63
2022/02/12 03:00:17;;;;;;;20.95;7.65;;;-1.00;99.90;;;;;;4941455;28;20550;-62
2022/02/12 03:02:43;;;;;;;22.95;9.00;;;-1.00;99.90;;;;;;4929346;28;20066;-63
2022/02/12 03:05:10;;;;;;;20.30;7.88;;;-0.90;99.90;;;;;;4941354;28;20048;-63
2022/02/12 03:07:36;;;;;;;14.18;7.88;;;-0.90;99.90;;;;;;4949376;28;20063;-66
2022/02/12 03:10:02;;;;;;;19.48;7.78;;;-0.80;99.90;;;;;;4910891;29;20066;-66
2022/02/12 03:12:29;;;;;;;14.63;7.82;;;-0.80;99.90;;;;;;4927934;28;20051;-67
2022/02/12 03:14:55;;;;;;;24.20;8.73;;;-0.80;99.90;;;;;;4930864;28;20287;-66
2022/02/12 03:17:21;;;;;;;20.25;7.60;;;-0.80;99.90;;;;;;4921661;29;20052;-66
2022/02/12 03:19:47;;;;;;;16.83;7.65;;;-0.70;99.90;;;;;;4915385;28;20069;-66
2022/02/12 03:22:13;;;;;;;16.77;7.22;;;-0.60;99.90;;;;;;4899670;29;20118;-67
2022/02/12 03:24:39;;;;;;;24.30;8.15;;;-0.60;99.90;;;;;;4935306;29;20056;-66
2022/02/12 03:27:07;;;;;;;19.38;6.70;;;-0.60;99.90;;;;;;4910140;28;20062;-66
2022/02/12 03:29:33;;;;;;;19.27;7.72;;;-0.60;99.90;;;;;;4922623;28;20491;-63
2022/02/12 03:31:59;;;;;;;16.33;7.88;;;-0.60;99.90;;;;;;4915592;28;20110;-63
2022/02/12 03:34:25;;;;;;;15.18;8.25;;;-0.50;99.90;;;;;;4907304;28;20051;-63
2022/02/12 03:36:51;;;;;;;21.58;8.32;;;-0.50;99.90;;;;;;4914537;28;20339;-63
2022/02/12 03:39:17;;;;;;;21.02;7.85;;;-0.50;99.90;;;;;;4951224;28;20083;-63
2022/02/12 03:41:44;;;;;;;24.90;9.18;;;-0.50;99.90;;;;;;4907031;29;20520;-63
2022/02/12 03:44:10;;;;;;;23.80;9.85;;;-0.50;99.90;;;;;;4921978;28;20498;-63
2022/02/12 03:46:36;;;;;;;16.85;8.15;;;-0.50;99.90;;;;;;4935028;28;20079;-63
2022/02/12 03:49:02;;;;;;;24.08;8.55;;;-0.50;99.90;;;;;;4888563;28;20105;-63
2022/02/12 03:51:28;;;;;;;18.85;8.43;;;-0.40;99.90;;;;;;4904058;28;20162;-66
2022/02/12 03:53:54;;;;;;;19.35;9.38;;;-0.50;99.90;;;;;;4909499;28;20054;-66
2022/02/12 03:56:20;;;;;;;15.27;8.80;;;-0.40;99.90;;;;;;4922382;28;20055;-66
2022/02/12 03:58:48;;;;;;;22.27;9.23;;;-0.40;99.90;;;;;;4936695;28;20450;-66
2022/02/12 04:01:14;;;;;;;24.23;9.25;;;-0.50;99.90;;;;;;4895204;29;20062;-67
2022/02/12 04:03:42;;;;;;;22.92;10.30;;;-0.50;99.90;;;;;;4966631;28;20055;-64
2022/02/12 04:06:08;;;;;;;24.13;9.48;;;-0.50;99.90;;;;;;4924679;28;20466;-63
2022/02/12 04:08:34;;;;;;;16.40;8.90;;;-0.60;99.90;;;;;;4911686;28;20454;-64
2022/02/12 04:11:00;;;;;;;21.05;9.57;;;-0.60;99.90;;;;;;4922355;28;20047;-64
2022/02/12 04:13:29;;;;;;;21.58;9.00;;;-0.50;99.90;;;;;;4914369;28;20047;-64
2022/02/12 04:15:55;;;;;;;23.23;8.52;;;-0.50;99.90;;;;;;4886046;29;20054;-67
2022/02/12 04:18:23;;;;;;;17.13;9.73;;;-0.50;99.90;;;;;;4940339;28;20062;-67
2022/02/12 04:20:49;;;;;;;14.85;9.38;;;-0.50;99.90;;;;;;4906324;28;20053;-64
2022/02/12 04:23:15;;;;;;;18.70;8.57;;;-0.50;99.90;;;;;;4944661;28;20185;-64
2022/02/12 04:25:41;;;;;;;23.33;9.82;;;-0.60;99.90;;;;;;4907121;29;20102;-66
2022/02/12 04:28:09;;;;;;;19.65;10.65;;;-0.50;99.90;;;;;;4964826;28;20193;-64
2022/02/12 04:30:37;;;;;;;26.33;11.10;;;-0.60;99.90;;;;;;4928458;28;20068;-64
2022/02/12 04:33:08;;;;;;;18.15;10.68;;;-0.60;99.90;;;;;;4918567;29;20055;-64
2022/02/12 04:35:34;;;;;;;24.42;11.18;;;-0.60;99.90;;;;;;4886084;29;20543;-64
2022/02/12 04:38:00;;;;;;;24.70;11.25;;;-0.70;99.90;;;;;;4910947;29;20051;-64
2022/02/12 04:40:26;;;;;;;28.50;11.35;;;-0.70;99.90;;;;;;4909071;28;20055;-64
2022/02/12 04:42:52;;;;;;;23.63;11.00;;;-0.70;99.90;;;;;;4911388;28;20462;-64
2022/02/12 04:45:18;;;;;;;21.77;11.05;;;-0.70;99.90;;;;;;4891013;29;20108;-65
2022/02/12 04:47:44;;;;;;;16.58;10.70;;;-0.70;99.90;;;;;;4939824;28;20083;-64
2022/02/12 04:50:11;;;;;;;21.27;11.32;;;-0.70;99.90;;;;;;4938925;28;20074;-64
2022/02/12 04:52:37;;;;;;;20.73;11.57;;;-0.70;99.90;;;;;;4917116;29;20499;-66
2022/02/12 04:55:05;;;;;;;24.45;12.10;;;-0.70;99.90;;;;;;4941619;28;20614;-67
2022/02/12 04:57:32;;;;;;;22.10;12.18;;;-0.70;99.90;;;;;;4893697;28;20135;-66
2022/02/12 04:59:59;;;;;;;23.48;11.80;;;-0.60;99.90;;;;;;4938144;29;20043;-65
2022/02/12 05:02:26;;;;;;;22.30;13.50;;;-0.60;99.90;;;;;;4943866;28;20052;-66
2022/02/12 05:04:52;;;;;;;29.48;13.80;;;-0.60;99.90;;;;;;4940818;28;20052;-67
2022/02/12 05:07:18;;;;;;;21.17;12.27;;;-0.60;99.90;;;;;;4924991;29;20401;-66
2022/02/12 05:09:44;;;;;;;22.40;12.48;;;-0.60;99.90;;;;;;4891214;28;20395;-65
2022/02/12 05:12:11;;;;;;;31.13;13.07;;;-0.50;99.90;;;;;;4908389;29;20048;-65
2022/02/12 05:14:37;;;;;;;23.70;12.45;;;-0.50;99.90;;;;;;4914771;29;20178;-65
2022/02/12 05:17:04;;;;;;;29.02;12.93;;;-0.50;99.90;;;;;;4923875;29;20548;-65
2022/02/12 05:19:31;;;;;;;24.02;13.38;;;-0.50;99.90;;;;;;4909177;29;20406;-65
2022/02/12 05:21:57;;;;;;;25.50;14.05;;;-0.40;99.90;;;;;;4985882;28;20366;-65
2022/02/12 05:24:23;;;;;;;25.92;13.90;;;-0.50;99.90;;;;;;4945697;28;20051;-65
2022/02/12 05:26:49;;;;;;;31.33;13.63;;;-0.50;99.90;;;;;;4920746;29;20090;-65
2022/02/12 05:29:16;;;;;;;22.17;13.23;;;-0.50;99.90;;;;;;4924957;29;20465;-66
2022/02/12 05:31:43;;;;;;;24.67;13.85;;;-0.50;99.90;;;;;;4991976;28;20467;-66
2022/02/12 05:34:09;;;;;;;20.52;13.82;;;-0.50;99.90;;;;;;5022763;28;20508;-66
2022/02/12 05:36:35;;;;;;;24.90;13.93;;;-0.40;99.90;;;;;;4981697;28;20054;-67
2022/02/12 05:39:02;;;;;;;23.85;13.00;;;-0.50;99.90;;;;;;4977132;28;20458;-66
2022/02/12 05:41:29;;;;;;;26.08;13.80;;;-0.50;99.90;;;;;;5002044;28;20038;-66
2022/02/12 05:43:55;;;;;;;29.33;14.35;;;-0.50;99.90;;;;;;5004195;28;20553;-67
2022/02/12 05:46:21;;;;;;;27.83;14.80;;;-0.50;99.90;;;;;;5018243;28;20053;-66
2022/02/12 05:48:47;;;;;;;26.70;14.63;;;-0.50;99.90;;;;;;4982439;28;20128;-66
2022/02/12 05:51:18;;;;;;;24.02;13.00;;;-0.60;99.90;;;;;;4988214;28;20137;-66
2022/02/12 05:53:44;;;;;;;21.90;13.98;;;-0.60;99.90;;;;;;4984838;28;20049;-66
2022/02/12 05:56:11;;;;;;;27.98;15.05;;;-0.60;99.90;;;;;;5029526;28;20502;-65
2022/02/12 05:58:37;;;;;;;24.05;14.13;;;-0.50;99.90;;;;;;5019502;28;20154;-66
2022/02/12 06:01:03;;;;;;;25.88;14.27;;;-0.50;99.90;;;;;;5004947;28;20053;-66
2022/02/12 06:03:29;;;;;;;24.98;14.35;;;-0.50;99.90;;;;;;5006266;28;20406;-66
2022/02/12 06:05:55;;;;;;;26.75;15.13;;;-0.50;99.90;;;;;;5022805;28;20412;-66
2022/02/12 06:08:21;;;;;;;25.52;14.85;;;-0.50;99.90;;;;;;5031118;28;20050;-66
2022/02/12 06:10:50;;;;;;;23.67;15.15;;;-0.50;99.90;;;;;;5005407;28;20052;-66
2022/02/12 06:13:17;;;;;;;32.40;16.20;;;-0.50;99.90;;;;;;5032206;28;20046;-66
2022/02/12 06:15:43;;;;;;;28.83;16.17;;;-0.50;99.90;;;;;;5031128;28;20562;-66
2022/02/12 06:18:09;;;;;;;29.27;15.50;;;-0.40;99.90;;;;;;4982945;28;20493;-66
2022/02/12 06:20:36;;;;;;;33.90;17.92;;;-0.40;99.90;;;;;;4985034;28;20050;-66
2022/02/12 06:23:02;;;;;;;27.88;15.30;;;-0.50;99.90;;;;;;5010728;28;20050;-66
2022/02/12 06:25:28;;;;;;;31.08;15.45;;;-0.50;99.90;;;;;;5004151;28;20046;-67
2022/02/12 06:27:54;;;;;;;26.50;15.05;;;-0.40;99.90;;;;;;4977025;28;20468;-66
2022/02/12 06:30:20;;;;;;;27.73;16.63;;;-0.40;99.90;;;;;;4944861;28;20583;-66
2022/02/12 06:32:46;;;;;;;33.00;16.80;;;-0.40;99.90;;;;;;4943896;28;20055;-66
2022/02/12 06:35:12;;;;;;;27.95;16.23;;;-0.40;99.90;;;;;;4930561;29;20411;-65
2022/02/12 06:37:39;;;;;;;24.98;16.85;;;-0.40;99.90;;;;;;4919954;29;20048;-66
2022/02/12 06:40:05;;;;;;;31.33;16.17;;;-0.40;99.90;;;;;;4913759;29;20205;-66
2022/02/12 06:42:31;;;;;;;24.15;17.15;;;-0.40;99.90;;;;;;4947555;28;20063;-66
2022/02/12 06:44:57;;;;;;;25.38;16.10;;;-0.50;99.90;;;;;;4939173;28;20055;-67
2022/02/12 06:47:23;;;;;;;27.05;16.40;;;-0.50;99.90;;;;;;4937108;28;20060;-66
2022/02/12 06:49:49;;;;;;;31.42;16.73;;;-0.50;99.90;;;;;;4891552;28;20055;-65
2022/02/12 06:52:15;;;;;;;24.52;16.10;;;-0.50;99.90;;;;;;4896453;29;20079;-66
2022/02/12 06:54:41;;;;;;;21.10;15.25;;;-0.50;99.90;;;;;;4934770;29;20556;-66
2022/02/12 06:57:07;;;;;;;27.83;16.83;;;-0.50;99.90;;;;;;4929401;28;20107;-66
2022/02/12 06:59:36;;;;;;;25.20;16.70;;;-0.40;99.90;;;;;;4960250;28;20095;-66
2022/02/12 07:02:03;;;;;;;32.22;17.50;;;-0.40;99.90;;;;;;4944476;28;20519;-66
2022/02/12 07:04:30;;;;;;;26.00;16.48;;;-0.40;99.90;;;;;;4961650;28;20052;-66
2022/02/12 07:06:56;;;;;;;22.95;16.88;;;-0.40;99.90;;;;;;4954151;28;20313;-66
2022/02/12 07:09:23;;;;;;;27.20;15.82;;;-0.40;99.90;;;;;;4957277;28;20053;-66
2022/02/12 07:11:49;;;;;;;25.42;17.70;;;-0.40;99.90;;;;;;4943832;28;20049;-66
2022/02/12 07:14:15;;;;;;;30.95;17.70;;;-0.40;99.90;;;;;;4951137;28;20510;-66
2022/02/12 07:16:43;;;;;;;23.85;17.17;;;-0.30;99.90;;;;;;4978954;28;20125;-65
2022/02/12 07:19:10;;;;;;;25.02;17.92;;;-0.30;99.90;;;;;;4922788;28;20080;-66
2022/02/12 07:21:36;;;;;;;29.15;18.73;;;-0.30;99.90;;;;;;4973534;28;20060;-66
2022/02/12 07:24:02;;;;;;;24.83;16.63;;;-0.30;99.90;;;;;;4948235;28;20052;-66
2022/02/12 07:26:28;;;;;;;43.25;20.67;;;-0.30;99.90;;;;;;4943462;28;20358;-65
2022/02/12 07:28:54;;;;;;;24.55;18.83;;;-0.20;99.90;;;;;;4967149;28;20058;-66
2022/02/12 07:31:29;;;;;;;26.90;16.92;;;-0.30;99.90;;;;;;5056107;27;21185;-66
2022/02/12 07:33:55;;;;;;;23.45;17.42;;;-0.20;99.90;;;;;;5019967;28;20566;-66
2022/02/12 07:36:21;;;;;;;26.98;18.58;;;-0.20;99.90;;;;;;5050478;28;20099;-66
2022/02/12 07:38:47;;;;;;;27.58;16.83;;;-0.10;99.90;;;;;;5049160;28;20174;-66
2022/02/12 07:41:16;;;;;;;25.30;16.77;;;-0.20;99.90;;;;;;5033032;28;20137;-66
2022/02/12 07:43:44;;;;;;;24.27;18.20;;;-0.10;99.90;;;;;;5036441;28;20082;-66
2022/02/12 07:46:11;;;;;;;32.47;18.48;;;-0.10;99.90;;;;;;5052519;28;20076;-65
2022/02/12 07:48:37;;;;;;;23.83;17.90;;;-0.10;99.90;;;;;;5057655;28;20044;-66
2022/02/12 07:51:04;;;;;;;26.73;17.15;;;0.00;99.90;;;;;;5027777;28;20045;-66
2022/02/12 07:53:30;;;;;;;26.77;17.20;;;0.00;99.90;;;;;;5036088;28;20113;-66
2022/02/12 07:55:56;;;;;;;33.08;18.60;;;0.10;99.90;;;;;;5018236;28;20621;-66
2022/02/12 07:58:22;;;;;;;25.67;17.98;;;0.10;99.90;;;;;;5046428;28;20052;-67
2022/02/12 08:00:48;;;;;;;26.17;17.38;;;0.20;99.90;;;;;;5065833;28;20507;-67
2022/02/12 08:03:14;;;;;;;25.30;17.30;;;0.30;99.90;;;;;;5050882;28;20641;-67
2022/02/12 08:05:41;;;;;;;28.15;16.77;;;0.40;99.90;;;;;;5050942;28;20083;-67
2022/02/12 08:08:07;;;;;;;28.63;15.18;;;0.70;99.90;;;;;;5043229;28;20049;-66
2022/02/12 08:13:18;;;;;;;22.98;14.82;;;1.00;99.90;;;;;;5034234;28;20397;-64
2022/02/12 08:15:44;;;;;;;25.23;15.95;;;1.20;99.90;;;;;;5014834;28;20128;-67
2022/02/12 08:18:10;;;;;;;24.83;13.32;;;1.30;99.90;;;;;;5050246;28;20048;-66
2022/02/12 08:20:36;;;;;;;23.25;12.98;;;1.50;99.90;;;;;;5052775;28;20488;-66
2022/02/12 08:23:03;;;;;;;24.52;14.05;;;1.60;99.90;;;;;;5045739;28;20047;-67
2022/02/12 08:25:29;;;;;;;21.40;13.95;;;1.70;99.90;;;;;;5006556;28;20048;-67
2022/02/12 08:27:55;;;;;;;19.05;12.02;;;2.00;99.90;;;;;;5035917;28;20810;-67
2022/02/12 08:30:23;;;;;;;24.55;12.07;;;2.60;99.90;;;;;;5034277;28;20068;-68
2022/02/12 08:32:49;;;;;;;21.48;11.18;;;2.90;99.90;;;;;;5032701;28;20048;-68
2022/02/12 08:35:15;;;;;;;18.77;11.18;;;3.40;99.90;;;;;;5048353;28;20098;-68
2022/02/12 08:37:45;;;;;;;19.13;10.30;;;3.70;99.90;;;;;;5033654;28;20354;-68
2022/02/12 08:40:22;;;;;;;17.50;10.05;;;4.00;99.90;;;;;;5038147;28;20391;-64
2022/02/12 08:42:49;;;;;;;17.35;9.23;;;4.10;99.90;;;;;;5023237;28;20041;-62
2022/02/12 08:45:16;;;;;;;15.50;9.23;;;4.60;99.90;;;;;;5022856;28;20052;-65
2022/02/12 08:47:45;;;;;;;15.65;9.13;;;4.70;99.90;;;;;;5027108;28;20041;-65
2022/02/12 08:50:12;;;;;;;16.33;8.10;;;5.10;99.90;;;;;;5002745;28;20077;-64
2022/02/12 08:52:40;;;;;;;18.15;8.20;;;5.30;99.90;;;;;;5008610;28;20423;-66
2022/02/12 08:55:07;;;;;;;17.25;8.98;;;5.30;99.90;;;;;;5043843;28;20431;-65
2022/02/12 08:57:34;;;;;;;18.13;7.85;;;5.70;99.90;;;;;;5025198;28;20514;-65
2022/02/12 09:00:00;;;;;;;16.40;8.55;;;5.80;99.90;;;;;;5042871;28;20049;-67
2022/02/12 09:02:26;;;;;;;13.98;7.55;;;6.20;99.90;;;;;;5011211;28;20518;-66
2022/02/12 09:04:52;;;;;;;16.23;7.78;;;6.00;99.90;;;;;;5016495;28;20052;-66
2022/02/12 09:07:19;;;;;;;17.60;9.10;;;6.20;99.90;;;;;;4992450;28;20053;-66
2022/02/12 09:09:45;;;;;;;17.58;7.95;;;6.60;99.90;;;;;;5023998;28;20126;-68
2022/02/12 09:12:11;;;;;;;14.00;7.38;;;6.70;99.90;;;;;;5009684;28;20542;-66
2022/02/12 09:14:37;;;;;;;15.35;6.82;;;6.80;99.90;;;;;;5025821;28;20500;-67
2022/02/12 09:17:05;;;;;;;14.30;7.13;;;6.80;99.90;;;;;;5011365;28;20040;-66
2022/02/12 09:19:32;;;;;;;16.52;8.05;;;6.70;99.90;;;;;;5043686;28;20053;-66
2022/02/12 09:21:58;;;;;;;16.30;7.15;;;6.90;99.90;;;;;;5019782;28;20045;-68
2022/02/12 09:24:24;;;;;;;18.30;7.47;;;7.00;99.90;;;;;;5008260;28;20048;-70
2022/02/12 09:26:50;;;;;;;13.82;6.22;;;7.30;99.90;;;;;;5041797;28;20048;-66
2022/02/12 09:29:16;;;;;;;17.55;6.72;;;7.30;99.90;;;;;;5025288;28;20575;-68
2022/02/12 09:31:43;;;;;;;15.40;5.82;;;7.30;99.90;;;;;;5008546;28;20052;-67
2022/02/12 09:34:09;;;;;;;13.85;5.97;;;7.80;99.90;;;;;;5043088;28;20602;-73
2022/02/12 09:36:37;;;;;;;10.50;5.97;;;7.90;99.90;;;;;;5031231;28;20053;-73
2022/02/12 09:39:03;;;;;;;15.85;6.20;;;8.50;99.90;;;;;;5031526;28;20090;-73
2022/02/12 09:41:29;;;;;;;12.98;6.50;;;8.40;99.90;;;;;;5025720;28;20084;-73
2022/02/12 09:43:56;;;;;;;13.88;6.78;;;8.50;99.90;;;;;;4994198;28;20140;-72
2022/02/12 09:46:31;;;;;;;16.42;6.72;;;8.60;99.90;;;;;;5044113;28;22005;-74
2022/02/12 09:49:02;;;;;;;13.32;5.70;;;8.40;99.90;;;;;;5025363;28;20040;-75
2022/02/12 09:51:32;;;;;;;19.33;6.13;;;8.30;99.90;;;;;;5007726;28;20037;-75
2022/02/12 09:53:58;;;;;;;16.58;5.55;;;8.50;99.90;;;;;;5052159;28;20085;-74
2022/02/12 09:56:25;;;;;;;16.48;6.45;;;8.70;99.90;;;;;;5019218;28;20038;-74
2022/02/12 09:58:51;;;;;;;15.88;6.18;;;9.10;99.90;;;;;;5000753;28;20064;-74
2022/02/12 10:01:19;;;;;;;12.80;5.72;;;9.10;99.90;;;;;;5022934;28;20101;-75
2022/02/12 10:03:46;;;;;;;15.43;5.53;;;9.00;79.30;;;;;;5060079;28;20504;-74
2022/02/12 10:06:12;;;;;;;11.63;5.68;;;9.00;99.90;;;;;;5009428;28;20053;-73
2022/02/12 10:08:41;;;;;;;18.38;5.35;;;8.80;99.90;;;;;;5043121;28;20095;-74
2022/02/12 10:11:16;;;;;;;11.30;5.07;;;8.90;94.40;;;;;;5042115;28;20522;-74
2022/02/12 10:13:43;;;;;;;13.68;5.25;;;9.40;98.70;;;;;;5012514;28;20373;-73
2022/02/12 10:16:09;;;;;;;9.85;5.30;;;9.70;99.90;;;;;;5020151;28;20041;-73
2022/02/12 10:18:39;;;;;;;13.20;5.63;;;10.00;99.90;;;;;;5014843;28;20538;-74
2022/02/12 10:21:06;;;;;;;14.05;5.05;;;9.80;94.70;;;;;;5015589;28;20053;-73
2022/02/12 10:23:35;;;;;;;14.70;5.90;;;9.80;99.90;;;;;;5011589;28;20096;-73
2022/02/12 10:26:05;;;;;;;16.30;5.95;;;10.30;78.10;;;;;;5036921;28;20051;-65
2022/02/12 10:28:34;;;;;;;14.05;5.43;;;10.10;95.50;;;;;;5034538;28;20513;-73
2022/02/12 10:31:01;;;;;;;11.40;4.80;;;10.40;68.50;;;;;;5048267;28;20061;-65
2022/02/12 10:33:29;;;;;;;12.50;5.05;;;10.40;77.20;;;;;;5051257;28;20049;-64
2022/02/12 10:35:58;;;;;;;13.63;5.53;;;10.30;81.30;;;;;;5019112;28;20045;-65
2022/02/12 10:38:29;;;;;;;13.75;5.22;;;10.50;79.80;;;;;;5040142;28;20107;-63
2022/02/12 10:41:16;;;;;;;15.38;5.18;;;10.50;68.60;;;;;;5008025;28;20190;-63
2022/02/12 10:43:46;;;;;;;16.67;6.13;;;10.60;65.60;;;;;;5015847;28;20048;-63
2022/02/12 10:46:12;;;;;;;13.73;5.13;;;10.80;66.50;;;;;;5039509;28;20048;-63
2022/02/12 10:48:40;;;;;;;12.80;5.05;;;10.60;68.90;;;;;;5024583;28;20114;-63
2022/02/12 10:51:17;;;;;;;12.85;5.00;;;11.00;65.30;;;;;;5053652;28;20111;-63
2022/02/12 10:54:07;;;;;;;11.43;5.22;;;10.90;64.30;;;;;;5059901;28;20500;-63
2022/02/12 10:56:48;;;;;;;14.07;4.85;;;10.60;60.40;;;;;;5023695;28;20053;-63
2022/02/12 10:59:19;;;;;;;17.13;5.22;;;10.80;62.50;;;;;;5009197;28;20075;-63
2022/02/12 11:01:46;;;;;;;17.58;5.78;;;11.30;64.40;;;;;;5040643;28;20046;-70
2022/02/12 11:04:15;;;;;;;13.48;4.97;;;10.80;62.20;;;;;;4990439;28;20404;-69
2022/02/12 11:06:45;;;;;;;10.43;4.45;;;10.80;62.40;;;;;;4992925;28;20055;-70
2022/02/12 11:09:12;;;;;;;12.32;4.53;;;11.20;63.90;;;;;;5008741;28;20052;-69
2022/02/12 11:11:38;;;;;;;10.40;4.38;;;11.10;60.10;;;;;;5043857;28;20103;-68
2022/02/12 11:14:07;;;;;;;13.50;4.78;;;11.00;62.20;;;;;;5008508;28;20402;-71
2022/02/12 11:16:35;;;;;;;12.23;4.63;;;11.00;63.50;;;;;;5022480;28;20124;-71
2022/02/12 11:19:03;;;;;;;9.45;4.75;;;11.10;64.80;;;;;;5040755;28;20045;-70
2022/02/12 11:21:30;;;;;;;12.02;4.95;;;11.00;63.50;;;;;;5049514;28;20064;-71
2022/02/12 11:23:59;;;;;;;11.23;4.72;;;11.20;61.90;;;;;;4999564;28;20564;-70
2022/02/12 11:26:26;;;;;;;11.48;4.38;;;11.50;60.20;;;;;;5023307;28;20049;-70
2022/02/12 11:28:52;;;;;;;13.23;5.47;;;11.40;60.80;;;;;;5054596;28;20068;-74
2022/02/12 11:31:21;;;;;;;12.60;4.70;;;11.60;60.00;;;;;;5026068;28;20056;-71
2022/02/12 11:34:14;;;;;;;11.93;4.68;;;11.70;59.60;;;;;;5023030;28;20874;-70
2022/02/12 11:36:41;;;;;;;11.32;4.93;;;11.80;56.80;;;;;;5040627;28;20419;-69
2022/02/12 11:39:26;;;;;;;15.63;6.07;;;11.70;58.40;;;;;;5038600;28;20095;-70
2022/02/12 11:41:54;;;;;;;11.70;4.40;;;11.90;59.20;;;;;;5034264;28;20130;-70
2022/02/12 11:44:44;;;;;;;8.48;4.05;;;12.10;60.40;;;;;;5049508;28;20087;-70
2022/02/12 11:47:12;;;;;;;10.73;4.05;;;11.70;57.00;;;;;;5027828;28;20537;-70
2022/02/12 11:49:43;;;;;;;10.95;4.65;;;11.50;57.00;;;;;;5050137;28;20042;-70
2022/02/12 11:52:10;;;;;;;11.68;3.67;;;11.50;57.60;;;;;;5040155;28;20152;-69
2022/02/12 11:54:55;;;;;;;9.73;4.30;;;11.10;58.50;;;;;;5029587;28;20090;-68
2022/02/12 11:57:27;;;;;;;13.25;4.38;;;10.90;56.30;;;;;;5050449;28;20041;-68
2022/02/12 11:59:59;;;;;;;14.27;4.43;;;11.10;59.50;;;;;;5017485;28;20044;-67
2022/02/12 12:02:44;;;;;;;10.32;3.75;;;10.80;57.80;;;;;;5032316;28;20521;-66
2022/02/12 12:05:19;;;;;;;11.13;4.20;;;10.70;57.70;;;;;;5032426;28;20530;-67
2022/02/12 12:10:28;;;;;;;11.57;5.00;;;10.30;59.10;;;;;;5018697;28;20508;-67
2022/02/12 12:13:10;;;;;;;9.40;4.28;;;10.50;59.50;;;;;;5046470;28;20052;-66
2022/02/12 12:15:37;;;;;;;12.45;4.60;;;10.40;57.90;;;;;;5051871;28;20052;-67
2022/02/12 12:18:05;;;;;;;14.50;4.97;;;10.20;58.30;;;;;;5036131;28;20037;-67
2022/02/12 12:20:37;;;;;;;13.43;4.47;;;10.50;59.20;;;;;;5039674;28;20052;-67
2022/02/12 12:23:05;;;;;;;11.07;4.30;;;10.20;58.50;;;;;;5016459;28;20140;-67
2022/02/12 12:25:58;;;;;;;10.20;4.25;;;10.00;58.40;;;;;;5038789;28;20566;-67
2022/02/12 12:28:30;;;;;;;12.57;4.47;;;10.50;60.00;;;;;;5025198;28;20546;-67
2022/02/12 12:30:57;;;;;;;10.13;4.55;;;10.30;60.40;;;;;;5033185;28;20148;-67
2022/02/12 12:33:26;;;;;;;11.35;3.88;;;10.10;58.50;;;;;;5042810;28;20077;-68
2022/02/12 12:35:54;;;;;;;11.82;4.57;;;9.90;59.00;;;;;;5025970;28;20037;-69
2022/02/12 12:38:34;;;;;;;11.05;4.20;;;10.10;59.70;;;;;;5031762;28;20084;-64
2022/02/12 12:41:38;;;;;;;15.95;4.68;;;9.70;58.60;;;;;;5040356;28;20076;-65
2022/02/12 12:44:16;;;;;;;11.32;4.60;;;9.60;59.30;;;;;;5027557;28;20053;-66
2022/02/12 12:46:49;;;;;;;11.55;4.63;;;9.80;60.30;;;;;;5027287;28;20408;-72